createdAt,value
2017-11-30T00:01:16.702Z,83.00
2017-11-30T00:03:44.046Z,82.50
2017-11-30T00:06:10.944Z,82.50
2017-11-30T00:08:37.897Z,83.00
2017-11-30T00:11:04.787Z,83.40
2017-11-30T00:13:32.139Z,83.40
2017-11-30T00:15:59.047Z,83.40
2017-11-30T00:18:25.963Z,83.10
2017-11-30T00:20:52.887Z,82.20
2017-11-30T00:23:20.202Z,81.90
2017-11-30T00:25:47.091Z,81.90
2017-11-30T00:28:14.415Z,82.70
2017-11-30T00:30:41.330Z,82.70
2017-11-30T00:33:08.251Z,82.60
2017-11-30T00:35:35.172Z,82.80
2017-11-30T00:38:02.485Z,83.00
2017-11-30T00:40:29.375Z,83.00
2017-11-30T00:43:08.639Z,83.30
2017-11-30T00:45:35.527Z,83.30
2017-11-30T00:48:02.433Z,83.10
2017-11-30T00:50:29.352Z,83.30
2017-11-30T00:52:56.699Z,83.30
2017-11-30T00:55:24.057Z,83.40
2017-11-30T00:57:51.353Z,83.40
2017-11-30T01:00:18.263Z,83.40
2017-11-30T01:02:45.599Z,83.40
2017-11-30T01:05:12.488Z,83.40
2017-11-30T01:07:39.407Z,83.40
2017-11-30T01:10:06.762Z,83.70
2017-11-30T01:12:33.658Z,83.70
2017-11-30T01:15:00.556Z,83.80
2017-11-30T01:17:27.883Z,84.30
2017-11-30T01:19:54.880Z,84.30
2017-11-30T01:22:22.141Z,84.20
2017-11-30T01:24:49.175Z,84.20
2017-11-30T01:27:16.464Z,84.20
2017-11-30T01:29:43.365Z,84.20
2017-11-30T01:32:10.704Z,84.10
2017-11-30T01:34:37.659Z,84.10
2017-11-30T01:37:05.015Z,84.40
2017-11-30T01:39:32.367Z,83.50
2017-11-30T01:41:59.318Z,83.50
2017-11-30T01:44:26.672Z,83.60
2017-11-30T01:46:54.027Z,83.90
2017-11-30T01:49:21.377Z,84.10
2017-11-30T01:51:48.267Z,84.10
2017-11-30T01:54:15.152Z,84.30
2017-11-30T01:56:42.071Z,84.40
2017-11-30T01:59:08.954Z,84.50
2017-11-30T02:01:35.908Z,84.40
2017-11-30T02:04:02.800Z,84.30
2017-11-30T02:06:29.803Z,84.30
2017-11-30T02:08:56.727Z,84.60
2017-11-30T02:11:23.626Z,84.60
2017-11-30T02:13:50.514Z,84.50
2017-11-30T02:16:17.431Z,84.70
2017-11-30T02:18:44.319Z,84.30
2017-11-30T02:21:11.263Z,84.20
2017-11-30T02:23:38.161Z,83.90
2017-11-30T02:26:05.068Z,84.20
2017-11-30T02:28:32.396Z,84.00
2017-11-30T02:30:59.290Z,84.00
2017-11-30T02:33:26.179Z,83.60
2017-11-30T02:35:53.125Z,83.70
2017-11-30T02:38:20.027Z,83.80
2017-11-30T02:40:46.919Z,83.70
2017-11-30T02:43:13.855Z,83.70
2017-11-30T02:45:40.751Z,83.90
2017-11-30T02:48:08.039Z,83.90
2017-11-30T02:50:34.961Z,83.90
2017-11-30T02:53:02.239Z,84.00
2017-11-30T02:55:29.123Z,84.00
2017-11-30T02:57:56.067Z,84.00
2017-11-30T03:00:22.959Z,84.10
2017-11-30T03:02:49.850Z,84.20
2017-11-30T03:05:16.789Z,84.40
2017-11-30T03:07:43.678Z,84.00
2017-11-30T03:10:10.973Z,83.70
2017-11-30T03:12:37.911Z,83.70
2017-11-30T03:15:04.800Z,83.50
2017-11-30T03:17:31.764Z,83.80
2017-11-30T03:19:59.083Z,84.30
2017-11-30T03:22:26.020Z,84.30
2017-11-30T03:24:52.914Z,84.30
2017-11-30T03:27:20.196Z,84.10
2017-11-30T03:29:47.115Z,84.10
2017-11-30T03:32:14.406Z,83.80
2017-11-30T03:34:41.331Z,83.80
2017-11-30T03:37:08.220Z,83.80
2017-11-30T03:39:35.198Z,83.80
2017-11-30T03:42:02.092Z,83.20
2017-11-30T03:44:28.981Z,81.60
2017-11-30T03:46:55.908Z,80.90
2017-11-30T03:49:22.795Z,81.90
2017-11-30T03:51:50.119Z,81.80
2017-11-30T03:54:17.041Z,81.80
2017-11-30T03:56:44.031Z,81.90
2017-11-30T03:59:10.916Z,81.90
2017-11-30T04:01:37.811Z,82.30
2017-11-30T04:04:04.767Z,81.80
2017-11-30T04:06:31.659Z,81.90
2017-11-30T04:08:58.580Z,82.70
2017-11-30T04:11:25.520Z,83.10
2017-11-30T04:13:52.820Z,82.60
2017-11-30T04:16:19.806Z,82.60
2017-11-30T04:18:46.731Z,81.60
2017-11-30T04:21:13.619Z,82.40
2017-11-30T04:23:40.974Z,82.40
2017-11-30T04:26:07.898Z,82.40
2017-11-30T04:28:34.853Z,81.90
2017-11-30T04:31:02.153Z,82.00
2017-11-30T04:33:29.081Z,82.00
2017-11-30T04:35:55.979Z,81.90
2017-11-30T04:38:23.255Z,81.80
2017-11-30T04:40:50.607Z,81.40
2017-11-30T04:43:17.494Z,81.40
2017-11-30T04:45:44.424Z,81.00
2017-11-30T04:48:11.338Z,80.90
2017-11-30T04:50:38.223Z,81.10
2017-11-30T04:53:05.139Z,80.80
2017-11-30T04:55:32.419Z,81.50
2017-11-30T04:57:59.343Z,81.50
2017-11-30T05:00:26.685Z,81.60
2017-11-30T05:02:53.574Z,81.60
2017-11-30T05:05:20.496Z,80.40
2017-11-30T05:07:47.787Z,80.50
2017-11-30T05:10:14.695Z,80.50
2017-11-30T05:12:42.011Z,81.00
2017-11-30T05:15:09.328Z,81.00
2017-11-30T05:17:36.214Z,81.20
2017-11-30T05:20:03.158Z,81.60
2017-11-30T05:22:30.048Z,81.20
2017-11-30T05:24:56.943Z,80.90
2017-11-30T05:27:23.911Z,80.50
2017-11-30T05:29:50.807Z,79.80
2017-11-30T05:32:17.815Z,80.30
2017-11-30T05:34:45.098Z,79.90
2017-11-30T05:37:12.059Z,79.90
2017-11-30T05:39:39.054Z,80.00
2017-11-30T05:42:05.936Z,79.50
2017-11-30T05:44:32.818Z,79.00
2017-11-30T05:46:59.763Z,79.50
2017-11-30T05:49:26.663Z,79.30
2017-11-30T05:51:54.007Z,80.30
2017-11-30T05:54:20.967Z,80.30
2017-11-30T05:56:47.862Z,80.30
2017-11-30T05:59:14.754Z,80.10
2017-11-30T06:01:41.779Z,79.80
2017-11-30T06:04:09.084Z,79.40
2017-11-30T06:06:35.958Z,79.30
2017-11-30T06:09:02.899Z,79.00
2017-11-30T06:11:29.871Z,78.90
2017-11-30T06:13:56.757Z,79.00
2017-11-30T06:16:23.772Z,79.30
2017-11-30T06:18:51.128Z,80.00
2017-11-30T06:21:18.419Z,80.00
2017-11-30T06:23:45.372Z,80.00
2017-11-30T06:26:12.258Z,79.40
2017-11-30T06:28:39.155Z,80.00
2017-11-30T06:31:06.152Z,80.60
2017-11-30T06:33:33.103Z,80.60
2017-11-30T06:36:00.064Z,81.40
2017-11-30T06:38:27.094Z,81.70
2017-11-30T06:40:53.992Z,81.70
2017-11-30T06:43:20.878Z,81.60
2017-11-30T06:45:47.813Z,81.70
2017-11-30T06:48:14.716Z,81.80
2017-11-30T06:50:41.660Z,81.90
2017-11-30T06:53:08.602Z,81.60
2017-11-30T06:55:35.536Z,82.10
2017-11-30T06:58:02.870Z,82.80
2017-11-30T07:00:29.865Z,82.80
2017-11-30T07:02:56.748Z,82.60
2017-11-30T07:05:23.688Z,83.20
2017-11-30T07:07:51.483Z,83.00
2017-11-30T07:10:18.834Z,83.30
2017-11-30T07:12:45.764Z,83.30
2017-11-30T07:15:12.742Z,83.40
2017-11-30T07:17:40.036Z,83.10
2017-11-30T07:20:07.035Z,83.10
2017-11-30T07:22:33.952Z,82.90
2017-11-30T07:25:00.921Z,83.30
2017-11-30T07:27:27.871Z,83.80
2017-11-30T07:29:54.823Z,84.00
2017-11-30T07:32:21.711Z,83.70
2017-11-30T07:34:48.630Z,83.60
2017-11-30T07:37:15.911Z,83.30
2017-11-30T07:39:42.851Z,83.30
2017-11-30T07:42:09.860Z,83.00
2017-11-30T07:44:36.743Z,82.70
2017-11-30T07:47:03.631Z,82.20
2017-11-30T07:49:30.566Z,81.80
2017-11-30T07:51:57.583Z,82.10
2017-11-30T07:54:24.531Z,81.50
2017-11-30T07:56:51.531Z,81.50
2017-11-30T07:59:18.428Z,81.60
2017-11-30T08:01:45.322Z,80.80
2017-11-30T08:04:12.275Z,80.10
2017-11-30T08:06:39.386Z,80.70
2017-11-30T08:09:06.310Z,80.60
2017-11-30T08:11:33.200Z,80.60
2017-11-30T08:14:00.135Z,81.20
2017-11-30T08:16:27.116Z,82.00
2017-11-30T08:18:54.410Z,83.00
2017-11-30T08:21:21.348Z,83.00
2017-11-30T08:23:48.255Z,83.10
2017-11-30T08:26:15.203Z,83.40
2017-11-30T08:28:42.132Z,83.60
2017-11-30T08:31:09.014Z,83.70
2017-11-30T08:33:35.900Z,84.10
2017-11-30T08:36:02.831Z,84.20
2017-11-30T08:38:29.718Z,84.30
2017-11-30T08:40:56.615Z,83.90
2017-11-30T08:43:23.560Z,82.70
2017-11-30T08:45:50.482Z,81.80
2017-11-30T08:48:17.773Z,80.70
2017-11-30T08:50:44.675Z,80.70
2017-11-30T08:53:12.002Z,79.10
2017-11-30T08:55:38.900Z,79.10
2017-11-30T08:58:05.795Z,78.90
2017-11-30T09:00:32.747Z,78.40
2017-11-30T09:02:59.706Z,78.00
2017-11-30T09:05:26.631Z,78.30
2017-11-30T09:07:53.556Z,78.30
2017-11-30T09:10:20.478Z,78.10
2017-11-30T09:12:47.429Z,78.20
2017-11-30T09:15:14.363Z,78.40
2017-11-30T09:17:41.251Z,77.80
2017-11-30T09:20:08.175Z,80.10
2017-11-30T09:22:35.074Z,81.30
2017-11-30T09:25:02.440Z,82.10
2017-11-30T09:27:29.839Z,81.60
2017-11-30T09:29:56.724Z,81.60
2017-11-30T09:32:23.730Z,82.00
2017-11-30T09:34:50.617Z,82.10
2017-11-30T09:37:17.527Z,82.40
2017-11-30T09:39:44.512Z,82.50
2017-11-30T09:42:11.466Z,82.10
2017-11-30T09:44:38.762Z,81.40
2017-11-30T09:47:05.758Z,81.40
2017-11-30T09:49:32.643Z,81.70
2017-11-30T09:51:59.656Z,81.80
2017-11-30T09:54:26.543Z,80.30
2017-11-30T09:56:53.473Z,79.50
2017-11-30T09:59:20.487Z,80.60
2017-11-30T10:01:47.438Z,81.60
2017-11-30T10:04:14.327Z,82.40
2017-11-30T10:06:41.234Z,82.20
2017-11-30T10:09:08.179Z,81.90
2017-11-30T10:11:35.078Z,82.70
2017-11-30T10:14:01.999Z,83.30
2017-11-30T10:16:28.914Z,83.50
2017-11-30T10:18:55.801Z,84.70
2017-11-30T10:21:22.716Z,85.80
2017-11-30T10:23:50.062Z,86.30
2017-11-30T10:26:17.015Z,86.30
2017-11-30T10:28:44.381Z,85.80
2017-11-30T10:31:11.724Z,85.20
2017-11-30T10:33:39.082Z,84.90
2017-11-30T10:36:06.444Z,84.80
2017-11-30T10:38:33.755Z,84.40
2017-11-30T10:41:00.735Z,84.40
2017-11-30T10:43:27.731Z,84.00
2017-11-30T10:45:54.626Z,83.70
2017-11-30T10:48:21.538Z,83.50
2017-11-30T10:50:48.515Z,83.50
2017-11-30T10:53:15.433Z,83.20
2017-11-30T10:55:42.414Z,82.10
2017-11-30T10:58:09.404Z,81.20
2017-11-30T11:00:36.289Z,81.30
2017-11-30T11:03:03.260Z,82.10
2017-11-30T11:05:30.571Z,82.00
2017-11-30T11:07:57.556Z,82.00
2017-11-30T11:10:24.506Z,81.70
2017-11-30T11:12:51.815Z,80.90
2017-11-30T11:15:18.744Z,80.90
2017-11-30T11:17:45.648Z,81.00
2017-11-30T11:20:12.936Z,80.70
2017-11-30T11:22:39.866Z,80.70
2017-11-30T11:25:07.211Z,81.00
2017-11-30T11:27:34.555Z,80.20
2017-11-30T11:30:01.443Z,80.20
2017-11-30T11:32:28.359Z,80.30
2017-11-30T11:34:55.723Z,79.30
2017-11-30T11:37:22.999Z,79.40
2017-11-30T11:39:49.903Z,79.40
2017-11-30T11:42:16.896Z,80.00
2017-11-30T11:44:43.811Z,80.60
2017-11-30T11:47:11.158Z,80.20
2017-11-30T11:49:38.066Z,80.20
2017-11-30T11:52:05.051Z,79.90
2017-11-30T11:54:31.967Z,80.00
2017-11-30T11:56:58.943Z,79.30
2017-11-30T11:59:25.891Z,80.00
2017-11-30T12:01:53.246Z,83.00
2017-11-30T12:04:20.195Z,83.00
2017-11-30T12:06:47.089Z,84.10
2017-11-30T12:09:14.026Z,83.50
2017-11-30T12:11:40.923Z,84.40
2017-11-30T12:14:07.843Z,84.10
2017-11-30T12:16:35.352Z,84.70
2017-11-30T12:19:02.643Z,84.00
2017-11-30T12:21:29.630Z,84.00
2017-11-30T12:23:56.579Z,82.90
2017-11-30T12:26:23.502Z,81.90
2017-11-30T12:28:50.483Z,82.20
2017-11-30T12:31:17.938Z,81.70
2017-11-30T12:33:45.224Z,82.20
2017-11-30T12:36:12.127Z,82.20
2017-11-30T12:38:39.109Z,83.40
2017-11-30T12:41:06.015Z,82.80
2017-11-30T12:43:32.904Z,82.40
2017-11-30T12:45:59.814Z,80.90
2017-11-30T12:48:26.807Z,81.30
2017-11-30T12:50:53.718Z,82.20
2017-11-30T12:53:21.026Z,81.80
2017-11-30T12:55:48.016Z,81.80
2017-11-30T12:58:14.933Z,81.80
2017-11-30T13:00:41.832Z,81.50
2017-11-30T13:03:10.840Z,79.30
2017-11-30T13:05:37.753Z,79.30
2017-11-30T13:08:05.038Z,80.00
2017-11-30T13:10:31.951Z,80.00
2017-11-30T13:12:59.229Z,80.40
2017-11-30T13:15:26.122Z,80.40
2017-11-30T13:17:53.045Z,80.90
2017-11-30T13:20:19.957Z,81.20
2017-11-30T13:22:47.270Z,81.10
2017-11-30T13:25:14.233Z,81.10
2017-11-30T13:27:41.192Z,80.60
2017-11-30T13:30:08.538Z,79.50
2017-11-30T13:32:35.891Z,79.60
2017-11-30T13:35:02.810Z,79.60
2017-11-30T13:37:29.741Z,80.00
2017-11-30T13:39:56.651Z,79.70
2017-11-30T13:42:23.941Z,79.30
2017-11-30T13:44:50.929Z,79.30
2017-11-30T13:47:17.885Z,78.80
2017-11-30T13:49:45.197Z,77.60
2017-11-30T13:52:12.081Z,77.60
2017-11-30T13:54:38.965Z,77.80
2017-11-30T13:57:05.873Z,77.70
2017-11-30T13:59:33.234Z,77.20
2017-11-30T14:02:00.549Z,77.20
2017-11-30T14:04:27.433Z,77.20
2017-11-30T14:06:54.378Z,77.10
2017-11-30T14:09:21.330Z,77.00
2017-11-30T14:11:48.629Z,77.10
2017-11-30T14:14:15.663Z,77.10
2017-11-30T14:16:42.577Z,76.90
2017-11-30T14:19:09.892Z,77.20
2017-11-30T14:21:36.866Z,77.30
2017-11-30T14:24:03.814Z,77.20
2017-11-30T14:26:30.761Z,76.90
2017-11-30T14:28:57.677Z,77.20
2017-11-30T14:31:24.654Z,76.60
2017-11-30T14:33:51.582Z,76.70
2017-11-30T14:36:18.477Z,76.70
2017-11-30T14:38:45.400Z,77.10
2017-11-30T14:41:12.677Z,77.30
2017-11-30T14:43:39.594Z,77.30
2017-11-30T14:46:06.475Z,77.20
2017-11-30T14:48:33.394Z,77.00
2017-11-30T14:51:00.673Z,77.30
2017-11-30T14:53:27.685Z,77.30
2017-11-30T14:55:54.650Z,77.20
2017-11-30T14:58:21.990Z,77.00
2017-11-30T15:00:49.305Z,77.30
2017-11-30T15:03:16.190Z,77.30
2017-11-30T15:05:43.548Z,77.80
2017-11-30T15:08:10.844Z,78.00
2017-11-30T15:10:37.752Z,78.00
2017-11-30T15:13:05.146Z,77.80
2017-11-30T15:15:32.066Z,77.80
2017-11-30T15:17:59.402Z,78.30
2017-11-30T15:20:26.324Z,78.40
2017-11-30T15:22:53.243Z,78.20
2017-11-30T15:25:20.154Z,78.20
2017-11-30T15:27:47.500Z,78.30
2017-11-30T15:30:14.453Z,78.30
2017-11-30T15:32:41.805Z,78.40
2017-11-30T15:35:09.122Z,79.10
2017-11-30T15:37:36.009Z,79.10
2017-11-30T15:40:03.293Z,78.70
2017-11-30T15:42:30.246Z,78.70
2017-11-30T15:44:57.136Z,78.50
2017-11-30T15:47:24.105Z,78.40
2017-11-30T15:49:51.449Z,78.40
2017-11-30T15:52:18.417Z,78.40
2017-11-30T15:54:45.709Z,78.70
2017-11-30T15:57:12.693Z,78.70
2017-11-30T15:59:39.646Z,79.20
2017-11-30T16:02:07.005Z,79.70
2017-11-30T16:04:34.308Z,79.80
2017-11-30T16:07:01.301Z,79.80
2017-11-30T16:09:28.220Z,79.70
2017-11-30T16:11:55.235Z,80.00
2017-11-30T16:14:22.137Z,80.40
2017-11-30T16:16:49.085Z,80.70
2017-11-30T16:19:16.016Z,80.80
2017-11-30T16:21:42.910Z,81.40
2017-11-30T16:24:09.821Z,81.80
2017-11-30T16:26:36.728Z,82.30
2017-11-30T16:29:03.706Z,82.60
2017-11-30T16:31:30.602Z,83.30
2017-11-30T16:33:57.554Z,83.40
2017-11-30T16:36:24.557Z,82.70
2017-11-30T16:38:51.505Z,82.50
2017-11-30T16:41:18.426Z,83.00
2017-11-30T16:43:45.310Z,83.20
2017-11-30T16:46:12.673Z,83.70
2017-11-30T16:48:39.703Z,83.70
2017-11-30T16:51:07.057Z,83.80
2017-11-30T16:53:34.402Z,83.90
2017-11-30T16:56:01.397Z,83.90
2017-11-30T16:58:28.445Z,84.10
2017-11-30T17:00:55.372Z,84.00
2017-11-30T17:03:22.303Z,84.40
2017-11-30T17:05:49.714Z,84.40
2017-11-30T17:08:16.700Z,84.40
2017-11-30T17:10:43.597Z,84.40
2017-11-30T17:13:10.709Z,84.00
2017-11-30T17:15:38.060Z,84.10
2017-11-30T17:18:05.451Z,84.10
2017-11-30T17:20:32.404Z,84.10
2017-11-30T17:22:59.292Z,84.20
2017-11-30T17:25:26.203Z,84.30
2017-11-30T17:27:53.237Z,84.30
2017-11-30T17:30:20.252Z,84.70
2017-11-30T17:32:47.237Z,85.30
2017-11-30T17:35:14.125Z,85.80
2017-11-30T17:37:41.034Z,86.30
2017-11-30T17:40:07.974Z,86.70
2017-11-30T17:42:35.018Z,87.10
2017-11-30T17:45:01.889Z,87.00
2017-11-30T17:47:28.797Z,85.70
2017-11-30T17:49:55.780Z,85.70
2017-11-30T17:52:22.657Z,85.90
2017-11-30T17:54:49.646Z,86.50
2017-11-30T17:57:16.571Z,87.00
2017-11-30T17:59:43.614Z,86.70
2017-11-30T18:02:10.891Z,86.80
2017-11-30T18:04:37.797Z,86.80
2017-11-30T18:07:04.765Z,86.60
2017-11-30T18:09:32.049Z,86.40
2017-11-30T18:11:58.962Z,86.40
2017-11-30T18:14:26.364Z,86.10
2017-11-30T18:16:53.294Z,86.10
2017-11-30T18:19:20.194Z,85.80
2017-11-30T18:21:47.182Z,86.20
2017-11-30T18:24:14.118Z,85.80
2017-11-30T18:26:41.235Z,85.90
2017-11-30T18:29:08.197Z,85.40
2017-11-30T18:31:35.500Z,85.00
2017-11-30T18:34:02.397Z,85.00
2017-11-30T18:36:29.705Z,83.90
2017-11-30T18:38:56.716Z,83.90
2017-11-30T18:41:24.013Z,84.70
2017-11-30T18:43:51.085Z,84.70
2017-11-30T18:46:18.046Z,85.00
2017-11-30T18:48:45.029Z,84.40
2017-11-30T18:51:11.925Z,84.60
2017-11-30T18:53:38.866Z,84.50
2017-11-30T18:56:05.798Z,84.40
2017-11-30T18:58:32.781Z,84.40
2017-11-30T19:01:00.067Z,84.00
2017-11-30T19:03:26.953Z,84.00
2017-11-30T19:05:53.961Z,83.80
2017-11-30T19:08:20.862Z,83.20
2017-11-30T19:10:47.809Z,83.20
2017-11-30T19:13:14.689Z,83.00
2017-11-30T19:15:41.605Z,83.20
2017-11-30T19:18:08.521Z,83.20
2017-11-30T19:20:35.505Z,83.10
2017-11-30T19:23:02.846Z,82.90
2017-11-30T19:25:29.845Z,82.90
2017-11-30T19:27:56.749Z,82.80
2017-11-30T19:30:24.114Z,82.70
2017-11-30T19:32:51.402Z,82.30
2017-11-30T19:35:18.329Z,82.30
2017-11-30T19:37:45.207Z,81.90
2017-11-30T19:40:12.235Z,82.50
2017-11-30T19:42:39.185Z,82.70
2017-11-30T19:45:06.118Z,82.90
2017-11-30T19:47:33.029Z,83.00
2017-11-30T19:49:59.914Z,83.00
2017-11-30T19:52:26.846Z,83.10
2017-11-30T19:54:53.748Z,83.30
2017-11-30T19:57:20.754Z,82.60
2017-11-30T19:59:47.661Z,82.70
2017-11-30T20:02:14.605Z,82.80
2017-11-30T20:04:41.535Z,83.00
2017-11-30T20:07:08.426Z,82.80
2017-11-30T20:09:35.346Z,82.80
2017-11-30T20:12:03.194Z,82.40
2017-11-30T20:14:30.224Z,81.80
2017-11-30T20:16:57.803Z,81.80
2017-11-30T20:19:24.712Z,81.80
2017-11-30T20:21:51.653Z,82.10
2017-11-30T20:24:18.534Z,82.00
2017-11-30T20:26:45.449Z,81.40
2017-11-30T20:29:12.328Z,81.50
2017-11-30T20:31:39.293Z,82.40
2017-11-30T20:34:06.185Z,83.10
2017-11-30T20:36:33.080Z,83.60
2017-11-30T20:39:00.075Z,84.10
2017-11-30T20:41:26.989Z,85.00
2017-11-30T20:43:54.306Z,84.70
2017-11-30T20:46:21.205Z,84.70
2017-11-30T20:48:48.118Z,84.60
2017-11-30T20:51:15.002Z,84.10
2017-11-30T20:53:41.930Z,83.60
2017-11-30T20:56:09.277Z,83.40
2017-11-30T20:58:36.602Z,83.10
2017-11-30T21:01:03.573Z,83.10
2017-11-30T21:03:30.463Z,83.40
2017-11-30T21:05:57.398Z,83.40
2017-11-30T21:08:24.287Z,83.10
2017-11-30T21:10:51.253Z,83.10
2017-11-30T21:13:18.168Z,82.80
2017-11-30T21:15:45.072Z,82.60
2017-11-30T21:18:12.445Z,82.00
2017-11-30T21:20:39.445Z,82.00
2017-11-30T21:23:06.341Z,81.80
2017-11-30T21:25:33.241Z,81.70
2017-11-30T21:28:00.149Z,82.10
2017-11-30T21:30:27.033Z,82.10
2017-11-30T21:32:54.386Z,81.80
2017-11-30T21:35:21.309Z,81.80
2017-11-30T21:37:48.280Z,81.90
2017-11-30T21:40:15.192Z,81.50
2017-11-30T21:42:42.170Z,81.90
2017-11-30T21:45:09.084Z,81.90
2017-11-30T21:47:35.993Z,81.90
2017-11-30T21:50:02.871Z,81.60
2017-11-30T21:52:29.857Z,81.50
2017-11-30T21:54:56.809Z,81.70
2017-11-30T21:57:23.745Z,81.80
2017-11-30T21:59:50.667Z,81.70
2017-11-30T22:02:17.592Z,81.80
2017-11-30T22:04:44.474Z,81.80
2017-11-30T22:07:11.535Z,82.00
2017-11-30T22:09:38.414Z,82.10
2017-11-30T22:12:05.301Z,82.00
2017-11-30T22:14:32.285Z,81.70
2017-11-30T22:16:59.578Z,81.70
2017-11-30T22:19:26.474Z,81.70
2017-11-30T22:21:53.421Z,81.20
2017-11-30T22:24:20.315Z,81.20
2017-11-30T22:26:47.221Z,81.20
2017-11-30T22:29:14.500Z,81.50
2017-11-30T22:31:41.509Z,81.50
2017-11-30T22:34:08.402Z,81.30
2017-11-30T22:36:35.301Z,80.70
2017-11-30T22:39:02.219Z,79.70
2017-11-30T22:41:29.110Z,79.90
2017-11-30T22:43:56.425Z,81.30
2017-11-30T22:46:23.397Z,81.30
2017-11-30T22:48:50.289Z,80.90
2017-11-30T22:51:17.209Z,80.70
2017-11-30T22:53:44.520Z,81.30
2017-11-30T22:56:11.426Z,81.20
2017-11-30T22:58:38.333Z,81.00
2017-11-30T23:01:05.272Z,81.10
2017-11-30T23:03:32.184Z,81.40
2017-11-30T23:05:59.170Z,81.50
2017-11-30T23:08:26.058Z,81.70
2017-11-30T23:10:52.990Z,81.80
2017-11-30T23:13:19.882Z,81.90
2017-11-30T23:15:46.834Z,81.50
2017-11-30T23:18:13.721Z,81.40
2017-11-30T23:20:41.060Z,81.00
2017-11-30T23:23:08.407Z,80.90
2017-11-30T23:25:35.364Z,80.90
2017-11-30T23:28:02.293Z,81.10
2017-11-30T23:30:29.199Z,81.00
2017-11-30T23:32:56.113Z,80.90
2017-11-30T23:35:23.437Z,80.40
2017-11-30T23:37:50.398Z,80.40
2017-11-30T23:40:17.285Z,80.60
2017-11-30T23:42:44.289Z,80.80
2017-11-30T23:45:11.223Z,80.80
2017-11-30T23:47:38.119Z,80.90
2017-11-30T23:50:05.007Z,81.00
2017-11-30T23:52:31.923Z,81.10
2017-11-30T23:54:58.914Z,81.10
2017-11-30T23:57:25.869Z,81.00
2017-11-30T23:59:52.867Z,80.90
